Time;durP1;ratioP1;P1;durP2;ratioP2;P2;SDS_P1;SDS_P2;PMS_P1;PMS_P2;Temp;Humidity;BMP_temperature;BMP_pressure;BME280_temperature;BME280_humidity;BME280_pressure;Samples;Min_cycle;Max_cycle;Signal;HPM_P1;HPM_P2
2021/05/22 00:01:04;;;;;;;11.60;1.70;;;;;;;;;;5063993;28;20177;-71
2021/05/22 00:03:29;;;;;;;5.60;1.57;;;;;;;;;;5064976;28;20194;-70
2021/05/22 00:05:54;;;;;;;5.80;1.70;;;;;;;;;;5065458;28;20251;-69
2021/05/22 00:08:19;;;;;;;8.60;2.30;;;;;;;;;;5059334;28;20543;-69
2021/05/22 00:10:45;;;;;;;9.80;2.43;;;;;;;;;;5053675;28;20662;-70
2021/05/22 00:13:10;;;;;;;11.23;1.70;;;;;;;;;;5062502;28;20394;-71
2021/05/22 00:15:35;;;;;;;5.67;1.73;;;;;;;;;;5058783;28;20181;-71
2021/05/22 00:18:00;;;;;;;6.93;1.87;;;;;;;;;;5061190;28;20178;-71
2021/05/22 00:20:26;;;;;;;10.47;2.50;;;;;;;;;;5067614;28;20267;-70
2021/05/22 00:22:51;;;;;;;8.70;2.30;;;;;;;;;;5060058;28;20560;-71
2021/05/22 00:25:16;;;;;;;6.57;2.03;;;;;;;;;;5066913;28;20182;-71
2021/05/22 00:27:42;;;;;;;5.67;1.70;;;;;;;;;;5057209;28;20205;-71
2021/05/22 00:30:08;;;;;;;7.43;2.03;;;;;;;;;;5066826;28;20208;-71
2021/05/22 00:32:33;;;;;;;8.97;1.80;;;;;;;;;;5056477;28;20594;-71
2021/05/22 00:34:58;;;;;;;4.43;1.50;;;;;;;;;;5061057;28;20181;-71
2021/05/22 00:37:24;;;;;;;7.33;2.17;;;;;;;;;;5057423;28;20209;-72
2021/05/22 00:39:49;;;;;;;7.47;2.30;;;;;;;;;;5061736;28;20231;-71
2021/05/22 00:42:14;;;;;;;12.47;2.20;;;;;;;;;;5060669;28;20247;-71
2021/05/22 00:44:58;;;;;;;9.57;2.70;;;;;;;;;;5060036;28;20647;-71
2021/05/22 00:47:23;;;;;;;7.60;2.07;;;;;;;;;;5056349;28;20177;-71
2021/05/22 00:49:48;;;;;;;7.87;2.90;;;;;;;;;;5054729;28;20821;-71
2021/05/22 00:52:13;;;;;;;5.93;1.53;;;;;;;;;;5057315;28;20617;-71
2021/05/22 00:54:39;;;;;;;10.40;2.70;;;;;;;;;;5059544;28;20174;-72
2021/05/22 00:57:04;;;;;;;6.87;1.40;;;;;;;;;;5060138;28;20625;-71
2021/05/22 00:59:30;;;;;;;9.00;1.47;;;;;;;;;;5064778;28;20564;-71
2021/05/22 01:01:55;;;;;;;7.23;1.70;;;;;;;;;;5063876;28;20236;-71
2021/05/22 01:04:20;;;;;;;4.83;1.67;;;;;;;;;;5065536;28;20207;-72
2021/05/22 01:06:45;;;;;;;4.27;1.63;;;;;;;;;;5064081;28;20176;-71
2021/05/22 01:09:13;;;;;;;9.93;2.00;;;;;;;;;;5053014;28;20193;-71
2021/05/22 01:11:40;;;;;;;4.83;1.47;;;;;;;;;;5057253;28;20319;-70
2021/05/22 01:14:08;;;;;;;9.87;1.80;;;;;;;;;;5061336;28;20261;-71
2021/05/22 01:16:33;;;;;;;6.33;2.17;;;;;;;;;;5064288;28;20652;-71
2021/05/22 01:19:00;;;;;;;5.73;1.80;;;;;;;;;;5059982;28;20197;-70
2021/05/22 01:21:25;;;;;;;5.77;1.70;;;;;;;;;;5064929;28;20177;-71
2021/05/22 01:23:57;;;;;;;6.67;1.43;;;;;;;;;;5062493;28;20208;-71
2021/05/22 01:26:23;;;;;;;6.97;1.13;;;;;;;;;;5063169;28;20188;-71
2021/05/22 01:28:48;;;;;;;6.57;2.60;;;;;;;;;;5060146;28;20317;-71
2021/05/22 01:31:14;;;;;;;7.27;1.40;;;;;;;;;;5062432;28;20260;-70
2021/05/22 01:33:39;;;;;;;9.93;1.40;;;;;;;;;;5059441;28;20242;-71
2021/05/22 01:36:05;;;;;;;3.83;1.40;;;;;;;;;;5059178;28;20227;-71
2021/05/22 01:38:31;;;;;;;8.23;1.67;;;;;;;;;;5059388;28;20229;-71
2021/05/22 01:40:56;;;;;;;6.23;1.53;;;;;;;;;;5052601;28;20198;-70
2021/05/22 01:43:21;;;;;;;7.53;1.70;;;;;;;;;;5063577;28;20275;-71
2021/05/22 01:45:48;;;;;;;4.87;2.00;;;;;;;;;;5061625;28;20277;-71
2021/05/22 01:48:17;;;;;;;4.93;1.57;;;;;;;;;;5061806;28;20208;-71
2021/05/22 01:50:45;;;;;;;3.80;1.40;;;;;;;;;;5062418;28;20178;-70
2021/05/22 01:53:12;;;;;;;6.77;1.53;;;;;;;;;;5064487;28;20193;-71
2021/05/22 01:55:38;;;;;;;5.30;1.53;;;;;;;;;;5059274;28;20615;-72
2021/05/22 01:58:04;;;;;;;5.90;1.70;;;;;;;;;;5054355;28;20261;-72
2021/05/22 02:00:29;;;;;;;6.67;1.60;;;;;;;;;;5051927;28;20251;-72
2021/05/22 02:03:06;;;;;;;3.33;1.60;;;;;;;;;;5064068;28;20203;-71
2021/05/22 02:05:32;;;;;;;4.97;1.50;;;;;;;;;;5059191;28;20193;-70
2021/05/22 02:07:58;;;;;;;3.70;1.23;;;;;;;;;;5059571;28;20205;-71
2021/05/22 02:10:24;;;;;;;10.07;1.77;;;;;;;;;;5061232;28;21526;-72
2021/05/22 02:12:50;;;;;;;5.13;1.83;;;;;;;;;;5062937;28;20220;-70
2021/05/22 02:15:15;;;;;;;6.50;1.43;;;;;;;;;;5066708;28;20695;-70
2021/05/22 02:17:42;;;;;;;5.53;2.37;;;;;;;;;;5060624;28;20256;-70
2021/05/22 02:20:09;;;;;;;4.93;1.30;;;;;;;;;;5061758;28;20268;-70
2021/05/22 02:22:37;;;;;;;6.83;1.70;;;;;;;;;;5071166;28;20250;-70
2021/05/22 02:25:02;;;;;;;4.70;1.00;;;;;;;;;;5055506;28;20251;-70
2021/05/22 02:27:27;;;;;;;8.43;1.70;;;;;;;;;;5069890;28;20694;-71
2021/05/22 02:29:52;;;;;;;5.43;2.20;;;;;;;;;;5064586;28;20176;-71
2021/05/22 02:32:18;;;;;;;6.43;1.40;;;;;;;;;;5069008;28;20733;-71
2021/05/22 02:34:54;;;;;;;5.70;1.17;;;;;;;;;;5060429;28;20177;-71
2021/05/22 02:37:21;;;;;;;7.27;1.50;;;;;;;;;;5066293;28;20204;-70
2021/05/22 02:39:53;;;;;;;7.97;1.70;;;;;;;;;;5061098;28;20203;-71
2021/05/22 02:42:18;;;;;;;6.37;1.20;;;;;;;;;;5068188;28;20292;-71
2021/05/22 02:44:46;;;;;;;5.10;1.30;;;;;;;;;;5069787;28;20197;-71
2021/05/22 02:47:11;;;;;;;6.70;1.43;;;;;;;;;;5066507;28;20256;-71
2021/05/22 02:49:41;;;;;;;4.40;1.40;;;;;;;;;;5067075;28;20330;-71
2021/05/22 02:52:09;;;;;;;5.77;1.90;;;;;;;;;;5063592;28;20189;-71
2021/05/22 02:54:39;;;;;;;4.93;1.30;;;;;;;;;;5057984;28;20669;-70
2021/05/22 02:57:05;;;;;;;4.60;1.70;;;;;;;;;;5057929;28;20659;-71
2021/05/22 02:59:31;;;;;;;6.90;1.60;;;;;;;;;;5067309;28;20177;-71
2021/05/22 03:01:57;;;;;;;3.43;1.67;;;;;;;;;;5060770;28;20455;-71
2021/05/22 03:04:22;;;;;;;8.00;2.40;;;;;;;;;;5059604;28;20190;-69
2021/05/22 03:06:47;;;;;;;3.60;1.63;;;;;;;;;;5065191;28;20177;-70
2021/05/22 03:09:12;;;;;;;4.43;1.47;;;;;;;;;;5055189;28;20209;-71
2021/05/22 03:11:38;;;;;;;10.60;1.73;;;;;;;;;;5058155;28;20203;-70
2021/05/22 03:14:03;;;;;;;8.47;3.50;;;;;;;;;;5063441;28;20754;-71
2021/05/22 03:16:28;;;;;;;5.50;1.70;;;;;;;;;;5057467;28;20259;-72
2021/05/22 03:18:54;;;;;;;5.50;2.23;;;;;;;;;;5060673;28;20173;-71
2021/05/22 03:21:19;;;;;;;5.27;2.10;;;;;;;;;;5066337;28;20169;-71
2021/05/22 03:23:44;;;;;;;5.80;1.77;;;;;;;;;;5058149;28;20198;-72
2021/05/22 03:26:10;;;;;;;7.70;2.80;;;;;;;;;;5065040;28;20266;-71
2021/05/22 03:28:35;;;;;;;3.63;1.80;;;;;;;;;;5061874;28;20236;-71
2021/05/22 03:31:00;;;;;;;5.23;2.00;;;;;;;;;;5059100;28;20223;-70
2021/05/22 03:33:25;;;;;;;4.87;2.00;;;;;;;;;;5063524;28;20281;-70
2021/05/22 03:35:51;;;;;;;5.27;2.13;;;;;;;;;;5062805;28;20169;-72
2021/05/22 03:38:16;;;;;;;4.17;2.07;;;;;;;;;;5056863;28;20581;-71
2021/05/22 03:40:41;;;;;;;10.47;3.30;;;;;;;;;;5058261;28;20193;-71
2021/05/22 03:43:06;;;;;;;2.73;1.83;;;;;;;;;;5067559;28;20297;-72
2021/05/22 03:45:32;;;;;;;4.07;2.03;;;;;;;;;;5065308;28;20169;-71
2021/05/22 03:47:57;;;;;;;4.07;2.30;;;;;;;;;;5068414;28;20632;-70
2021/05/22 03:50:22;;;;;;;8.23;2.73;;;;;;;;;;5065161;28;20173;-70
2021/05/22 03:52:48;;;;;;;8.73;2.47;;;;;;;;;;5070893;28;20702;-71
2021/05/22 03:55:13;;;;;;;8.40;2.73;;;;;;;;;;5064398;28;20189;-71
2021/05/22 03:57:38;;;;;;;9.97;2.17;;;;;;;;;;5065518;28;20219;-70
2021/05/22 04:00:04;;;;;;;6.63;2.80;;;;;;;;;;5067572;28;20173;-71
2021/05/22 04:02:29;;;;;;;8.50;2.40;;;;;;;;;;5064722;28;20188;-72
2021/05/22 04:04:54;;;;;;;7.57;2.20;;;;;;;;;;5060607;28;20178;-72
2021/05/22 04:07:20;;;;;;;8.70;2.37;;;;;;;;;;5062494;28;20173;-71
2021/05/22 04:09:45;;;;;;;7.70;2.37;;;;;;;;;;5057733;28;20593;-71
2021/05/22 04:12:10;;;;;;;7.07;2.33;;;;;;;;;;5056659;28;20552;-72
2021/05/22 04:14:35;;;;;;;6.03;2.37;;;;;;;;;;5061999;28;20295;-72
2021/05/22 04:17:00;;;;;;;6.90;2.93;;;;;;;;;;5066245;28;20271;-72
2021/05/22 04:19:25;;;;;;;5.97;2.20;;;;;;;;;;5061777;28;20662;-72
2021/05/22 04:21:51;;;;;;;5.57;2.80;;;;;;;;;;5064219;28;20272;-72
2021/05/22 04:24:16;;;;;;;7.97;2.37;;;;;;;;;;5053073;28;20652;-71
2021/05/22 04:26:41;;;;;;;3.27;2.07;;;;;;;;;;5062731;28;20177;-71
2021/05/22 04:29:07;;;;;;;6.07;2.27;;;;;;;;;;5061347;28;20229;-71
2021/05/22 04:31:32;;;;;;;5.87;2.40;;;;;;;;;;5063682;28;20265;-71
2021/05/22 04:33:57;;;;;;;2.80;2.20;;;;;;;;;;5054640;28;20212;-71
2021/05/22 04:36:22;;;;;;;6.67;2.40;;;;;;;;;;5062014;28;20161;-72
2021/05/22 04:38:47;;;;;;;4.20;2.50;;;;;;;;;;5054730;28;20663;-72
2021/05/22 04:41:13;;;;;;;7.37;3.00;;;;;;;;;;5066259;28;20674;-71
2021/05/22 04:43:38;;;;;;;7.20;2.60;;;;;;;;;;5066377;28;20203;-71
2021/05/22 04:46:03;;;;;;;5.47;2.07;;;;;;;;;;5060523;28;20270;-71
2021/05/22 04:48:28;;;;;;;5.10;2.60;;;;;;;;;;5062861;28;20200;-71
2021/05/22 04:50:55;;;;;;;5.73;2.93;;;;;;;;;;5056931;28;20704;-71
2021/05/22 04:53:21;;;;;;;4.47;2.37;;;;;;;;;;5059983;28;20243;-71
2021/05/22 04:55:46;;;;;;;6.20;2.50;;;;;;;;;;5060307;28;20184;-72
2021/05/22 04:58:11;;;;;;;5.67;2.33;;;;;;;;;;5059718;28;20550;-71
2021/05/22 05:00:36;;;;;;;9.90;2.90;;;;;;;;;;5062552;28;20256;-72
2021/05/22 05:03:02;;;;;;;5.60;4.33;;;;;;;;;;5061466;28;20200;-71
2021/05/22 05:05:27;;;;;;;10.67;3.07;;;;;;;;;;5058397;28;20181;-72
2021/05/22 05:07:52;;;;;;;8.33;4.07;;;;;;;;;;5056424;28;20327;-71
2021/05/22 05:10:17;;;;;;;7.10;3.00;;;;;;;;;;5064371;28;20181;-70
2021/05/22 05:12:42;;;;;;;3.53;3.03;;;;;;;;;;5059814;28;20516;-72
2021/05/22 05:15:08;;;;;;;6.77;2.70;;;;;;;;;;5059529;28;20260;-71
2021/05/22 05:17:33;;;;;;;7.63;2.60;;;;;;;;;;5061640;28;20181;-72
2021/05/22 05:19:58;;;;;;;6.77;3.10;;;;;;;;;;5058201;28;20169;-71
2021/05/22 05:22:24;;;;;;;8.43;3.60;;;;;;;;;;5063496;28;20195;-71
2021/05/22 05:24:49;;;;;;;3.63;2.97;;;;;;;;;;5055609;28;20705;-71
2021/05/22 05:27:14;;;;;;;3.63;2.77;;;;;;;;;;5054831;28;20627;-71
2021/05/22 05:29:41;;;;;;;3.83;2.90;;;;;;;;;;5059013;28;20692;-70
2021/05/22 05:32:09;;;;;;;4.33;2.70;;;;;;;;;;5057333;28;20220;-70
2021/05/22 05:34:34;;;;;;;3.90;2.80;;;;;;;;;;5053628;28;20181;-70
2021/05/22 05:36:59;;;;;;;5.43;3.13;;;;;;;;;;5056745;28;20190;-70
2021/05/22 05:39:25;;;;;;;6.47;2.93;;;;;;;;;;5060984;28;20173;-71
2021/05/22 05:41:50;;;;;;;6.77;3.97;;;;;;;;;;5056671;28;20181;-70
2021/05/22 05:44:15;;;;;;;8.13;3.63;;;;;;;;;;5061679;28;20600;-70
2021/05/22 05:46:40;;;;;;;11.93;4.27;;;;;;;;;;5062950;28;20566;-70
2021/05/22 05:49:05;;;;;;;7.20;3.17;;;;;;;;;;5059111;28;20594;-71
2021/05/22 05:51:31;;;;;;;6.70;3.67;;;;;;;;;;5060401;28;20267;-70
2021/05/22 05:53:56;;;;;;;6.30;4.10;;;;;;;;;;5052837;28;20205;-71
2021/05/22 05:56:21;;;;;;;6.63;3.53;;;;;;;;;;5065684;28;20217;-69
2021/05/22 05:58:46;;;;;;;4.53;3.67;;;;;;;;;;5056925;28;20169;-71
2021/05/22 06:01:13;;;;;;;6.87;3.60;;;;;;;;;;5059270;28;20173;-71
2021/05/22 06:03:39;;;;;;;5.67;3.57;;;;;;;;;;5055026;28;20215;-71
2021/05/22 06:06:04;;;;;;;7.37;3.50;;;;;;;;;;5059869;28;20170;-71
2021/05/22 06:08:29;;;;;;;4.77;3.97;;;;;;;;;;5064187;28;20219;-70
2021/05/22 06:10:54;;;;;;;5.57;3.40;;;;;;;;;;5066147;28;20672;-71
2021/05/22 06:13:33;;;;;;;5.00;3.33;;;;;;;;;;5063441;28;20578;-70
2021/05/22 06:16:26;;;;;;;5.20;3.80;;;;;;;;;;5067337;28;20177;-70
2021/05/22 06:18:44;;;;;;;6.60;3.70;;;;;;;;;;5055367;28;20208;-71
2021/05/22 06:21:09;;;;;;;7.83;3.83;;;;;;;;;;5061207;28;20186;-70
2021/05/22 06:23:35;;;;;;;4.60;3.17;;;;;;;;;;5063235;28;20193;-71
2021/05/22 06:26:00;;;;;;;5.37;3.57;;;;;;;;;;5060026;28;20633;-72
2021/05/22 06:28:26;;;;;;;4.77;3.63;;;;;;;;;;5059587;28;20208;-72
2021/05/22 06:30:52;;;;;;;4.67;3.60;;;;;;;;;;5058533;28;20170;-71
2021/05/22 06:33:17;;;;;;;5.07;3.97;;;;;;;;;;5066311;28;20682;-72
2021/05/22 06:35:42;;;;;;;4.20;3.47;;;;;;;;;;5061127;28;20170;-72
2021/05/22 06:38:08;;;;;;;6.10;3.40;;;;;;;;;;5058718;28;20257;-70
2021/05/22 06:40:33;;;;;;;5.13;3.93;;;;;;;;;;5060531;28;20732;-71
2021/05/22 06:42:58;;;;;;;5.47;4.30;;;;;;;;;;5061797;28;20212;-70
2021/05/22 06:45:26;;;;;;;8.17;4.20;;;;;;;;;;5053467;28;20176;-72
2021/05/22 06:47:51;;;;;;;5.87;3.70;;;;;;;;;;5058872;28;20196;-72
2021/05/22 06:50:16;;;;;;;7.10;4.43;;;;;;;;;;5056357;28;20174;-72
2021/05/22 06:52:41;;;;;;;6.60;4.00;;;;;;;;;;5063848;28;20193;-72
2021/05/22 06:55:07;;;;;;;5.60;4.40;;;;;;;;;;5059671;28;20177;-71
2021/05/22 06:57:32;;;;;;;4.03;3.37;;;;;;;;;;5068027;28;20196;-71
2021/05/22 06:59:57;;;;;;;4.73;3.60;;;;;;;;;;5061027;28;20177;-71
2021/05/22 07:02:23;;;;;;;6.13;3.80;;;;;;;;;;5065074;28;20690;-71
2021/05/22 07:04:48;;;;;;;5.63;4.00;;;;;;;;;;5063387;28;20263;-71
2021/05/22 07:07:13;;;;;;;5.27;3.63;;;;;;;;;;5059767;28;20181;-72
2021/05/22 07:09:38;;;;;;;11.53;4.10;;;;;;;;;;5058969;28;20286;-71
2021/05/22 07:12:04;;;;;;;6.47;4.50;;;;;;;;;;5061688;28;20205;-72
2021/05/22 07:14:29;;;;;;;8.27;4.57;;;;;;;;;;5065157;28;20180;-72
2021/05/22 07:16:56;;;;;;;8.90;4.20;;;;;;;;;;5059006;28;20211;-72
2021/05/22 07:19:21;;;;;;;6.73;4.33;;;;;;;;;;5062216;28;20177;-72
2021/05/22 07:21:46;;;;;;;8.07;5.27;;;;;;;;;;5059398;28;20196;-70
2021/05/22 07:24:12;;;;;;;5.53;4.17;;;;;;;;;;5063322;28;20303;-71
2021/05/22 07:26:37;;;;;;;6.77;4.80;;;;;;;;;;5063891;28;20177;-71
2021/05/22 07:29:03;;;;;;;7.03;4.47;;;;;;;;;;5061145;28;20295;-72
2021/05/22 07:31:28;;;;;;;7.20;4.47;;;;;;;;;;5064944;28;20180;-72
2021/05/22 07:33:55;;;;;;;5.53;4.30;;;;;;;;;;5060262;28;20194;-71
2021/05/22 07:36:20;;;;;;;5.60;4.60;;;;;;;;;;5061096;28;20600;-72
2021/05/22 07:38:45;;;;;;;6.37;4.43;;;;;;;;;;5061736;28;20176;-71
2021/05/22 07:41:10;;;;;;;5.73;4.07;;;;;;;;;;5058185;28;20206;-71
2021/05/22 07:43:35;;;;;;;4.73;4.33;;;;;;;;;;5061118;28;20575;-72
2021/05/22 07:46:01;;;;;;;4.33;3.93;;;;;;;;;;5060023;28;20205;-73
2021/05/22 07:48:26;;;;;;;6.43;4.33;;;;;;;;;;5067194;28;20263;-72
2021/05/22 07:50:53;;;;;;;5.73;4.37;;;;;;;;;;5061682;28;20177;-72
2021/05/22 07:53:18;;;;;;;8.27;4.50;;;;;;;;;;5069046;28;20324;-71
2021/05/22 07:55:44;;;;;;;6.93;4.47;;;;;;;;;;5063890;28;20248;-72
2021/05/22 07:58:09;;;;;;;5.53;4.40;;;;;;;;;;5065361;28;20173;-71
2021/05/22 08:00:34;;;;;;;5.63;4.73;;;;;;;;;;5059428;28;20254;-72
2021/05/22 08:02:59;;;;;;;5.50;4.90;;;;;;;;;;5062269;28;20201;-71
2021/05/22 08:05:25;;;;;;;5.63;4.80;;;;;;;;;;5060240;28;20176;-72
2021/05/22 08:07:50;;;;;;;5.83;5.20;;;;;;;;;;5061868;28;20203;-72
2021/05/22 08:10:16;;;;;;;8.93;4.53;;;;;;;;;;5060893;28;20581;-73
2021/05/22 08:12:42;;;;;;;6.10;4.70;;;;;;;;;;5061968;28;20291;-73
2021/05/22 08:15:07;;;;;;;8.03;5.23;;;;;;;;;;5062177;28;20275;-73
2021/05/22 08:17:33;;;;;;;6.03;5.33;;;;;;;;;;5067995;28;20173;-72
2021/05/22 08:19:58;;;;;;;8.23;5.67;;;;;;;;;;5057618;28;20216;-72
2021/05/22 08:22:23;;;;;;;5.80;5.13;;;;;;;;;;5063725;28;20670;-72
2021/05/22 08:24:49;;;;;;;5.43;4.97;;;;;;;;;;5062701;28;20185;-72
2021/05/22 08:27:14;;;;;;;5.17;4.67;;;;;;;;;;5062126;28;20181;-72
2021/05/22 08:29:39;;;;;;;8.63;5.57;;;;;;;;;;5064134;28;20197;-72
2021/05/22 08:32:05;;;;;;;7.97;5.70;;;;;;;;;;5060350;28;20215;-73
2021/05/22 08:34:30;;;;;;;8.33;5.73;;;;;;;;;;5062454;28;20251;-72
2021/05/22 08:36:56;;;;;;;8.83;5.93;;;;;;;;;;5062992;28;20185;-73
2021/05/22 08:39:21;;;;;;;7.30;6.23;;;;;;;;;;5061062;28;20259;-72
2021/05/22 08:41:49;;;;;;;7.30;5.10;;;;;;;;;;5058783;28;20227;-71
2021/05/22 08:44:14;;;;;;;6.97;4.70;;;;;;;;;;5057392;28;20197;-73
2021/05/22 08:46:39;;;;;;;7.27;5.50;;;;;;;;;;5061977;28;20181;-72
2021/05/22 08:49:05;;;;;;;5.73;4.97;;;;;;;;;;5063366;28;20732;-71
2021/05/22 08:51:30;;;;;;;6.77;4.27;;;;;;;;;;5060592;28;20183;-71
2021/05/22 08:53:56;;;;;;;5.90;4.10;;;;;;;;;;5060716;28;20705;-71
2021/05/22 08:56:21;;;;;;;5.67;4.30;;;;;;;;;;5063532;28;20222;-70
2021/05/22 08:58:47;;;;;;;5.43;4.57;;;;;;;;;;5058879;28;20197;-70
2021/05/22 09:01:12;;;;;;;4.77;4.37;;;;;;;;;;5062565;28;20178;-71
2021/05/22 09:03:38;;;;;;;4.60;4.20;;;;;;;;;;5058195;28;20296;-71
2021/05/22 09:06:03;;;;;;;4.77;4.27;;;;;;;;;;5060687;28;20184;-72
2021/05/22 09:08:29;;;;;;;3.77;3.10;;;;;;;;;;5056231;28;20585;-71
2021/05/22 09:10:54;;;;;;;3.83;3.43;;;;;;;;;;5061565;28;20233;-71
2021/05/22 09:13:23;;;;;;;4.03;3.43;;;;;;;;;;5058017;28;20201;-71
2021/05/22 09:15:54;;;;;;;3.20;2.67;;;;;;;;;;5057526;28;20193;-71
2021/05/22 09:18:19;;;;;;;3.17;2.10;;;;;;;;;;5064136;28;20196;-70
2021/05/22 09:20:48;;;;;;;3.30;2.10;;;;;;;;;;5056306;28;20181;-71
2021/05/22 09:23:14;;;;;;;1.93;1.83;;;;;;;;;;5065064;28;20212;-71
2021/05/22 09:25:41;;;;;;;2.87;1.60;;;;;;;;;;5062593;28;20184;-71
2021/05/22 09:28:07;;;;;;;4.80;1.40;;;;;;;;;;5057714;28;20218;-71
2021/05/22 09:30:33;;;;;;;1.80;1.70;;;;;;;;;;5065369;28;20251;-71
2021/05/22 09:32:59;;;;;;;1.93;1.00;;;;;;;;;;5056385;28;20563;-72
2021/05/22 09:35:25;;;;;;;2.10;1.20;;;;;;;;;;5063666;28;20172;-70
2021/05/22 09:37:50;;;;;;;2.33;1.67;;;;;;;;;;5061270;28;20615;-70
2021/05/22 09:40:20;;;;;;;2.33;1.30;;;;;;;;;;5063250;28;20169;-71
2021/05/22 09:42:45;;;;;;;1.37;1.27;;;;;;;;;;5062961;28;20228;-71
2021/05/22 09:45:20;;;;;;;1.33;1.07;;;;;;;;;;5063440;28;20189;-71
2021/05/22 09:47:45;;;;;;;3.57;1.70;;;;;;;;;;5063157;28;20179;-71
2021/05/22 09:50:23;;;;;;;3.67;1.20;;;;;;;;;;5061993;28;20545;-71
2021/05/22 09:52:50;;;;;;;1.20;1.03;;;;;;;;;;5061155;28;20796;-71
2021/05/22 09:55:15;;;;;;;1.70;1.60;;;;;;;;;;5053863;28;20181;-71
2021/05/22 09:57:41;;;;;;;2.20;1.63;;;;;;;;;;5058126;28;20257;-72
2021/05/22 10:00:16;;;;;;;3.30;1.83;;;;;;;;;;5063396;28;20165;-71
2021/05/22 10:02:42;;;;;;;2.83;2.17;;;;;;;;;;5054027;28;20620;-71
2021/05/22 10:05:15;;;;;;;5.13;2.93;;;;;;;;;;5058169;28;20177;-72
2021/05/22 10:07:41;;;;;;;5.80;3.43;;;;;;;;;;5064229;28;20252;-72
2021/05/22 10:10:06;;;;;;;5.07;2.00;;;;;;;;;;5058426;28;20762;-71
2021/05/22 10:12:31;;;;;;;4.23;1.13;;;;;;;;;;5061073;28;20196;-71
2021/05/22 10:14:57;;;;;;;1.50;1.30;;;;;;;;;;5053548;28;20174;-71
2021/05/22 10:17:23;;;;;;;1.97;1.40;;;;;;;;;;5061835;28;20177;-71
2021/05/22 10:19:48;;;;;;;2.17;1.23;;;;;;;;;;5061517;28;20593;-71
2021/05/22 10:22:13;;;;;;;2.17;1.60;;;;;;;;;;5059575;28;20709;-71
2021/05/22 10:24:38;;;;;;;5.63;2.43;;;;;;;;;;5058676;28;20192;-72
2021/05/22 10:27:04;;;;;;;1.90;1.70;;;;;;;;;;5057664;28;20242;-70
2021/05/22 10:29:30;;;;;;;3.37;2.00;;;;;;;;;;5058204;28;20748;-70
2021/05/22 10:31:55;;;;;;;4.50;2.30;;;;;;;;;;5065173;28;20270;-70
2021/05/22 10:34:21;;;;;;;4.03;2.10;;;;;;;;;;5061962;28;20211;-70
2021/05/22 10:36:56;;;;;;;3.93;2.23;;;;;;;;;;5057032;28;20178;-70
2021/05/22 10:39:51;;;;;;;5.87;2.13;;;;;;;;;;5061633;28;20640;-69
2021/05/22 10:42:22;;;;;;;4.70;3.07;;;;;;;;;;5062004;28;20244;-69
2021/05/22 10:44:47;;;;;;;4.60;2.70;;;;;;;;;;5064354;28;20642;-70
2021/05/22 10:47:17;;;;;;;4.00;2.43;;;;;;;;;;5060901;28;20262;-70
2021/05/22 10:49:45;;;;;;;2.90;2.70;;;;;;;;;;5065756;28;20208;-69
2021/05/22 10:52:18;;;;;;;6.80;3.43;;;;;;;;;;5065960;28;20313;-70
2021/05/22 10:54:56;;;;;;;3.77;2.90;;;;;;;;;;5065619;28;20176;-70
2021/05/22 10:57:21;;;;;;;5.80;3.57;;;;;;;;;;5071312;28;20216;-70
2021/05/22 11:00:06;;;;;;;3.27;2.77;;;;;;;;;;5068258;28;20595;-69
2021/05/22 11:02:33;;;;;;;4.53;3.10;;;;;;;;;;5068240;28;20211;-68
2021/05/22 11:05:18;;;;;;;5.30;3.37;;;;;;;;;;5071080;28;20553;-69
2021/05/22 11:07:43;;;;;;;9.10;4.13;;;;;;;;;;5064501;28;20222;-69
2021/05/22 11:10:08;;;;;;;6.87;3.83;;;;;;;;;;5073209;28;20204;-69
2021/05/22 11:12:36;;;;;;;5.77;3.87;;;;;;;;;;5072781;28;20200;-68
2021/05/22 11:15:02;;;;;;;13.47;4.33;;;;;;;;;;5064422;28;20260;-70
2021/05/22 11:17:28;;;;;;;5.67;3.50;;;;;;;;;;5072273;28;20252;-70
2021/05/22 11:19:57;;;;;;;4.53;3.20;;;;;;;;;;5069712;28;20754;-70
2021/05/22 11:22:22;;;;;;;3.60;3.30;;;;;;;;;;5066886;28;20200;-70
2021/05/22 11:25:00;;;;;;;5.20;3.50;;;;;;;;;;5065034;28;20174;-70
2021/05/22 11:27:44;;;;;;;5.33;3.60;;;;;;;;;;5066620;28;20738;-70
2021/05/22 11:30:13;;;;;;;6.43;3.60;;;;;;;;;;5069522;28;20189;-70
2021/05/22 11:32:42;;;;;;;6.93;4.20;;;;;;;;;;5066326;28;20558;-70
2021/05/22 11:35:26;;;;;;;5.57;3.33;;;;;;;;;;5062083;28;20177;-69
2021/05/22 11:37:52;;;;;;;7.73;3.90;;;;;;;;;;5063416;28;20193;-70
2021/05/22 11:40:35;;;;;;;6.17;4.30;;;;;;;;;;5060022;28;20178;-70
2021/05/22 11:43:18;;;;;;;6.50;3.90;;;;;;;;;;5062604;28;20674;-70
2021/05/22 11:45:44;;;;;;;4.87;3.67;;;;;;;;;;5061904;28;20165;-70
2021/05/22 11:48:22;;;;;;;5.17;3.17;;;;;;;;;;5064679;28;20215;-70
2021/05/22 11:50:47;;;;;;;4.43;3.03;;;;;;;;;;5064270;28;20180;-70
2021/05/22 11:53:13;;;;;;;3.60;3.00;;;;;;;;;;5058716;28;20197;-70
2021/05/22 11:55:38;;;;;;;2.87;2.60;;;;;;;;;;5064414;28;20363;-70
2021/05/22 11:58:04;;;;;;;6.17;2.60;;;;;;;;;;5062143;28;20166;-70
2021/05/22 12:00:29;;;;;;;5.20;3.20;;;;;;;;;;5062549;28;20568;-70
2021/05/22 12:02:54;;;;;;;4.17;2.30;;;;;;;;;;5059943;28;20192;-69
2021/05/22 12:05:20;;;;;;;5.80;2.97;;;;;;;;;;5061021;28;20218;-69
2021/05/22 12:07:49;;;;;;;6.30;2.63;;;;;;;;;;5058808;28;20651;-69
2021/05/22 12:10:14;;;;;;;7.63;3.33;;;;;;;;;;5065548;28;20607;-69
2021/05/22 12:12:40;;;;;;;5.83;2.73;;;;;;;;;;5063407;28;20196;-70
2021/05/22 12:15:05;;;;;;;5.33;2.33;;;;;;;;;;5067855;28;20696;-69
2021/05/22 12:17:42;;;;;;;5.23;2.70;;;;;;;;;;5062048;28;20244;-69
2021/05/22 12:20:07;;;;;;;4.90;2.27;;;;;;;;;;5066879;28;20184;-69
2021/05/22 12:22:32;;;;;;;4.40;3.00;;;;;;;;;;5057375;28;20193;-69
2021/05/22 12:24:57;;;;;;;7.70;3.47;;;;;;;;;;5064148;28;20192;-69
2021/05/22 12:27:23;;;;;;;6.60;2.90;;;;;;;;;;5061853;28;20181;-69
2021/05/22 12:29:50;;;;;;;6.00;3.77;;;;;;;;;;5063302;28;20248;-70
2021/05/22 12:32:15;;;;;;;5.80;3.50;;;;;;;;;;5058448;28;20205;-67
2021/05/22 12:34:40;;;;;;;5.70;3.57;;;;;;;;;;5058103;28;20173;-69
2021/05/22 12:37:10;;;;;;;4.57;3.60;;;;;;;;;;5062279;28;20189;-68
2021/05/22 12:39:46;;;;;;;6.07;3.60;;;;;;;;;;5063832;28;20529;-70
2021/05/22 12:42:12;;;;;;;6.00;2.60;;;;;;;;;;5059342;28;20201;-70
2021/05/22 12:44:37;;;;;;;4.13;2.60;;;;;;;;;;5065355;28;20192;-69
2021/05/22 12:47:02;;;;;;;4.13;2.93;;;;;;;;;;5068975;28;20188;-69
2021/05/22 12:49:33;;;;;;;4.93;2.70;;;;;;;;;;5063473;28;20685;-70
2021/05/22 12:52:12;;;;;;;3.37;2.73;;;;;;;;;;5063730;28;20659;-69
2021/05/22 12:54:37;;;;;;;4.80;2.70;;;;;;;;;;5062003;28;20226;-68
2021/05/22 12:57:12;;;;;;;5.43;2.53;;;;;;;;;;5062048;28;20264;-70
2021/05/22 12:59:38;;;;;;;3.80;2.13;;;;;;;;;;5067210;28;20256;-69
2021/05/22 13:02:13;;;;;;;6.00;2.50;;;;;;;;;;5061463;28;20253;-69
2021/05/22 13:04:39;;;;;;;3.90;2.10;;;;;;;;;;5060893;28;20862;-69
2021/05/22 13:07:04;;;;;;;8.30;2.33;;;;;;;;;;5067625;28;20193;-68
2021/05/22 13:09:29;;;;;;;4.23;2.07;;;;;;;;;;5061494;28;20288;-70
2021/05/22 13:11:58;;;;;;;4.10;2.10;;;;;;;;;;5066633;28;20197;-69
2021/05/22 13:14:24;;;;;;;8.37;2.57;;;;;;;;;;5061994;28;20165;-70
2021/05/22 13:16:55;;;;;;;4.63;2.37;;;;;;;;;;5067799;28;20555;-71
2021/05/22 13:19:38;;;;;;;4.80;2.57;;;;;;;;;;5062382;28;20177;-70
2021/05/22 13:22:22;;;;;;;5.80;2.80;;;;;;;;;;5068849;28;20196;-71
2021/05/22 13:25:01;;;;;;;5.93;3.30;;;;;;;;;;5059080;28;20539;-71
2021/05/22 13:27:27;;;;;;;3.50;2.17;;;;;;;;;;5062449;28;20647;-71
2021/05/22 13:29:56;;;;;;;4.00;2.70;;;;;;;;;;5066879;28;20233;-70
2021/05/22 13:32:21;;;;;;;5.17;3.13;;;;;;;;;;5060784;28;20212;-71
2021/05/22 13:34:48;;;;;;;4.27;3.43;;;;;;;;;;5065418;28;20193;-71
2021/05/22 13:37:14;;;;;;;4.27;2.80;;;;;;;;;;5063652;28;20181;-70
2021/05/22 13:39:39;;;;;;;7.07;3.03;;;;;;;;;;5058411;28;20529;-71
2021/05/22 13:42:04;;;;;;;4.50;3.07;;;;;;;;;;5061895;28;20201;-70
2021/05/22 13:44:31;;;;;;;5.50;2.60;;;;;;;;;;5061447;28;20257;-68
2021/05/22 13:46:56;;;;;;;7.30;2.70;;;;;;;;;;5067564;28;20173;-71
2021/05/22 13:49:21;;;;;;;5.13;1.70;;;;;;;;;;5058333;28;20197;-70
2021/05/22 13:51:46;;;;;;;3.70;1.83;;;;;;;;;;5064823;28;20169;-72
2021/05/22 13:54:12;;;;;;;4.23;2.00;;;;;;;;;;5060027;28;20281;-71
2021/05/22 13:56:37;;;;;;;5.00;1.50;;;;;;;;;;5060148;28;20189;-72
2021/05/22 13:59:02;;;;;;;3.47;2.10;;;;;;;;;;5068445;28;20185;-72
2021/05/22 14:01:29;;;;;;;4.83;1.90;;;;;;;;;;5065924;28;20635;-71
2021/05/22 14:03:55;;;;;;;3.87;2.10;;;;;;;;;;5071486;28;20738;-71
2021/05/22 14:06:20;;;;;;;5.80;2.17;;;;;;;;;;5071902;28;20260;-71
2021/05/22 14:08:45;;;;;;;4.97;2.20;;;;;;;;;;5068664;28;20284;-73
2021/05/22 14:11:11;;;;;;;2.43;1.83;;;;;;;;;;5064607;28;20265;-70
2021/05/22 14:13:36;;;;;;;7.43;2.43;;;;;;;;;;5063528;28;20189;-70
2021/05/22 14:16:01;;;;;;;2.90;1.93;;;;;;;;;;5068300;28;20184;-71
2021/05/22 14:18:27;;;;;;;5.13;2.10;;;;;;;;;;5066089;28;20608;-71
2021/05/22 14:20:53;;;;;;;8.18;2.22;;;;;;;;;;5060472;28;20682;-72
2021/05/22 14:23:18;;;;;;;4.75;2.13;;;;;;;;;;5065610;28;20205;-72
2021/05/22 14:25:43;;;;;;;3.40;1.88;;;;;;;;;;5067230;28;20254;-71
2021/05/22 14:28:09;;;;;;;4.10;2.28;;;;;;;;;;5073161;28;20215;-71
2021/05/22 14:30:34;;;;;;;5.05;2.10;;;;;;;;;;5069279;28;20261;-73
2021/05/22 14:32:59;;;;;;;3.63;2.00;;;;;;;;;;5068133;28;20192;-70
2021/05/22 14:35:24;;;;;;;2.70;1.70;;;;;;;;;;5060840;28;20184;-72
2021/05/22 14:37:50;;;;;;;4.03;1.87;;;;;;;;;;5064290;28;20349;-72
2021/05/22 14:40:15;;;;;;;2.80;1.80;;;;;;;;;;5066689;28;20192;-72